Pronóstico
Mapa Interactivo
Aviación
Climatología
Hidrometeorología
Agrometeorología
Estaciones Automáticas
Transparencia
OMM WMO
Portada
Institución
Noticias
Imágenes
Tsunami
Historial
Boletines y Alertas
Contactos
Buscar Contenidos
Informe del Tiempo

VUELOS DE BAJO NIVEL DESDE SUPERFICIE HASTA 24,000 PIES.

 
VALIDO DESDE 241200Z...…………………….…………………HASTA 250000Z

 

SANTO DOMINGO FIR...PORT-AU-PRINCE FIR HISPANIOLA... ISPANIOLA...SCT020 SCT070. TIL 15Z OCNL BKN015 TOP 100. ISOL SHRA AFT 18Z. OTLK...VFR.WTRS..
SCT025 SCT060. OCNL BKN050. TOP 150. WDLY SCT SHRA/ISOL TSRA. WND ELY 20KT S OF 16N. OTLK...VFR SHRA WND.ICE AND FRZLVL..
NO SGFNT ICE EXP OUTSIDE CNVTV ACT.FRZLVL... GLFMEX.....150-165. WRN ATLC...130 NE TO 160 SW.CARIB......150-165..TURB...NO SGFNT TURB EXP OUTSIDE CNVTV ACT...

 

5,000 FT.

10,000 FT.

18,000 FT.

24,000 FT.

MDSD

0905KT+17ºC

0705KT+08ºC

3605KT-05ºC

0215KT-16ºC

MTPP

0905KT+17ºC

0905KT+08ºC

0405KT-05ºC

3615KT-15ºC

TJSJ

0910KT+17ºC

0605KT+08ºC

3410KT-06ºC

0315KT-18ºC

 

 

 

 

 

 

TAF MDPP 241000Z 2412/2512 00000KT 9999 FEW018 BECMG 2415/2417 09010KT SCT022= 

TAF MDST 241000Z 2412/2512 00000KT 5000 BR SCT015 BECMG 2416/2418 12010KT= 

TAF MDPC 241000Z 2412/2512 09005KT 9999 FEW022 BECMG 2418/2420 07010KT PROB30 2500/2504 8000 –SHRA SCT018=

TAF MDBH 241000Z 2412/2512 13008KT 9999 FEW018CB SCT020=

TAF MDJB 241000Z 2412/2512 00000KT 9999 SCT020 BECMG 2416/2418 09010KT=

TAF MDSD 241000Z 2412/2512 02004KT 9999 FEW018CB FEW020 PROB30 2422/2502 8000 –SH FEW016CB SCT018=

TAF MDLR 241000Z 2412/2512 06008KT 9999 FEW018CB SCT020 PROB30 2418/2422 7000 –TSRA FEW018CB SCT018 

TAF MDCY 241000Z 2412/2512 00000KT 9999 SCT020 BECMG 2416/2418 01010KT PROB30 2421/2501 7000 –RA FEW016CB BKN018=

KMIA 240858Z 2409/2506 VRB05KT P6SM FEW025 BKN170 OVC250 FM241300 15010KT P6SM VCSH SCT025 BKN040 OVC120 FM241700 17010KT 5SM SHRA VCTS SCT025CB BKN040 OVC080 FM250000 23005KT 5SM SHRA SCT025 BKN040 OVC080

KJFK 240834Z 2409/2512 16018G30KT 5SM -SHRA SCT005 OVC012 WS020/17050KT FM241200 16021G32KT 2SM +SHRA VCTS SCT005 OVC012CB WS020/17050KT FM241500 17022G36KT 2SM +SHRA VCTS SCT005 OVC012CB WS020/17050KT FM250200 21014G20KT 2SM +SHRA VCTS SCT005 OVC012CB WS020/17050KT FM250300 22012KT 2SM +SHRA VCTS SCT005 OVC012CB FM250500 17007KT 3SM SHRA SCT005 OVC012 FM250800 22006KT 5SM SHRA SCT008 OVC020

TJSJ 240527Z 2406/2506 17004KT P6SM SCT025 FM240800 11004KT P6SM VCSH FEW028 SCT040 FM241300 08012G18KT P6SM SCT030 FM242200 11006KT P6SM SCT030

MUHA 240500Z 2406/2506 VRB03KT 9000 FEW020 TEMPO 2409/2412 5000 BR BECMG 2416/2418 33010KT TEMPO 2419/2502 5000 SHRA FEW018CB BKN025 BECMG 2503/2504 VRB03KT

TAF MUGM 2407/2507 33008KT 9999 FEW030 FEW100 SCT280 QNH2992INS BECMG 2414/2416 13012KT 9999 FEW030 FEW120 BKN280 QNH2991INS BECMG 2501/2503 34012KT 9999 FEW030 SCT100 SCT280 QNH2989INS T22/2411Z T32/2418Z FN00178

TAF TNCC 240937Z 2412/2512 10013G25KT 9999 SCT022 PROB30 TEMPO 2506/2512 BKN015

MKJP 240515Z 2406/2506 10010KT 9999 FEW024 BECMG 2414/2416 13020KT FEW022

 

PREPARADO POR: HENRIQUEZ A.24 DE OCTUBRE DEL 2017-